TOM285 HESH-EGKK
Flight info
| Callsign | TOM285 |
|---|---|
| Flight time | N/A |
| Altitude | 34000 |
| Route | SHM L677 CVO L617 NOZ L551 ANTAR DCT LAPSO DCT KUPIS DCT PEXAN DCT KUGGI DCT XANIS DCT DIMIS DCT RODON DCT VAKSU/N0440F360 DCT SPL DCT NAKIT DCT PEVAL DCT SUXAN DCT BEGAR DCT ETINO DCT KESAX DCT KUNAV |
| Aircraft | B738/M-SDE2E3FGHIRWXY/LB1 |
Departure
| Time | N/A |
|---|---|
| Airport | Sharm El Sheikh International Airport (HESH) |
Arrival
| Time | 2026-05-04 20:01 |
|---|---|
| Airport | London Gatwick Airport (EGKK) |
| Time | Latitude | Longitude | Altitude | Speed | Heading |
|---|---|---|---|---|---|
| 2026-05-04 18:45 | 47.28459 | 8.96272 | 37993 ft | 432 kts | 301° |
| 2026-05-04 18:46 | 47.31868 | 8.88906 | 37999 ft | 431 kts | 301° |
| 2026-05-04 18:46 | 47.34987 | 8.82150 | 38000 ft | 430 kts | 301° |
| 2026-05-04 18:47 | 47.38351 | 8.74843 | 37993 ft | 430 kts | 301° |
| 2026-05-04 18:47 | 47.41706 | 8.67538 | 37995 ft | 429 kts | 301° |
| 2026-05-04 18:48 | 47.45053 | 8.60229 | 37995 ft | 429 kts | 301° |
| 2026-05-04 18:48 | 47.48597 | 8.52469 | 37992 ft | 429 kts | 301° |
| 2026-05-04 18:49 | 47.51960 | 8.45087 | 37997 ft | 429 kts | 301° |
| 2026-05-04 18:49 | 47.55297 | 8.37741 | 38005 ft | 429 kts | 301° |
| 2026-05-04 18:50 | 47.58622 | 8.30401 | 38002 ft | 430 kts | 301° |
| 2026-05-04 18:50 | 47.61951 | 8.23034 | 38003 ft | 430 kts | 301° |
| 2026-05-04 18:51 | 47.65350 | 8.15491 | 38011 ft | 431 kts | 301° |
| 2026-05-04 18:51 | 47.68702 | 8.08029 | 37996 ft | 432 kts | 301° |
| 2026-05-04 18:52 | 47.71464 | 8.01867 | 37996 ft | 432 kts | 300° |
| 2026-05-04 18:52 | 47.74827 | 7.94345 | 38005 ft | 433 kts | 300° |
| 2026-05-04 18:53 | 47.78186 | 7.86809 | 37998 ft | 433 kts | 300° |
| 2026-05-04 18:53 | 47.81503 | 7.79348 | 37996 ft | 434 kts | 300° |
| 2026-05-04 18:54 | 47.84824 | 7.71855 | 37997 ft | 434 kts | 300° |
| 2026-05-04 18:54 | 47.88147 | 7.64333 | 37989 ft | 434 kts | 300° |
| 2026-05-04 18:55 | 47.91594 | 7.56480 | 37994 ft | 433 kts | 299° |
| 2026-05-04 18:55 | 47.96333 | 7.44824 | 37994 ft | 431 kts | 297° |
| 2026-05-04 18:56 | 47.99402 | 7.37146 | 37994 ft | 431 kts | 297° |
| 2026-05-04 18:56 | 48.02478 | 7.29472 | 37996 ft | 430 kts | 297° |
| 2026-05-04 18:57 | 48.05558 | 7.21795 | 37998 ft | 430 kts | 297° |
| 2026-05-04 18:57 | 48.08655 | 7.14059 | 37997 ft | 431 kts | 297° |
| 2026-05-04 18:58 | 48.11730 | 7.06360 | 37997 ft | 431 kts | 297° |
| 2026-05-04 18:58 | 48.14807 | 6.98629 | 37996 ft | 432 kts | 297° |
| 2026-05-04 18:59 | 48.17941 | 6.90733 | 37996 ft | 433 kts | 297° |
| 2026-05-04 18:59 | 48.21062 | 6.82847 | 38004 ft | 434 kts | 297° |
| 2026-05-04 19:00 | 48.24146 | 6.75033 | 38007 ft | 436 kts | 297° |
| 2026-05-04 19:00 | 48.27232 | 6.67188 | 38005 ft | 437 kts | 297° |
| 2026-05-04 19:01 | 48.29821 | 6.60590 | 37998 ft | 437 kts | 297° |
| 2026-05-04 19:01 | 48.32906 | 6.52708 | 38007 ft | 438 kts | 297° |
| 2026-05-04 19:02 | 48.36009 | 6.44753 | 37992 ft | 438 kts | 297° |
| 2026-05-04 19:02 | 48.39092 | 6.36828 | 37987 ft | 438 kts | 297° |
| 2026-05-04 19:03 | 48.42189 | 6.28844 | 37996 ft | 438 kts | 297° |
| 2026-05-04 19:03 | 48.45273 | 6.20868 | 37999 ft | 437 kts | 297° |
| 2026-05-04 19:04 | 48.48348 | 6.12889 | 37993 ft | 437 kts | 297° |
| 2026-05-04 19:04 | 48.51402 | 6.04944 | 37997 ft | 437 kts | 297° |
| 2026-05-04 19:05 | 48.54462 | 5.96956 | 37995 ft | 436 kts | 297° |
| 2026-05-04 19:05 | 48.57537 | 5.88908 | 37996 ft | 436 kts | 297° |
| 2026-05-04 19:06 | 48.60563 | 5.80960 | 37995 ft | 436 kts | 296° |
| 2026-05-04 19:06 | 48.63611 | 5.72933 | 37996 ft | 436 kts | 296° |
| 2026-05-04 19:07 | 48.66674 | 5.64853 | 37986 ft | 437 kts | 296° |
| 2026-05-04 19:07 | 48.69756 | 5.56779 | 37983 ft | 437 kts | 297° |
| 2026-05-04 19:08 | 48.72784 | 5.48828 | 37957 ft | 430 kts | 296° |
| 2026-05-04 19:08 | 48.75784 | 5.40912 | 37982 ft | 428 kts | 296° |
| 2026-05-04 19:09 | 48.78266 | 5.34322 | 37977 ft | 433 kts | 296° |
| 2026-05-04 19:09 | 48.81423 | 5.25920 | 37974 ft | 440 kts | 296° |
| 2026-05-04 19:10 | 48.84463 | 5.17809 | 37965 ft | 444 kts | 296° |
| 2026-05-04 19:10 | 48.87519 | 5.09635 | 37965 ft | 446 kts | 296° |
| 2026-05-04 19:11 | 48.90572 | 5.01445 | 37948 ft | 442 kts | 296° |
| 2026-05-04 19:11 | 48.92037 | 4.97507 | 37944 ft | 436 kts | 296° |
| 2026-05-04 19:12 | 48.95139 | 4.89142 | 37956 ft | 434 kts | 296° |
| 2026-05-04 19:13 | 48.98093 | 4.81145 | 37951 ft | 434 kts | 296° |
| 2026-05-04 19:13 | 49.01049 | 4.73121 | 37946 ft | 434 kts | 296° |
| 2026-05-04 19:14 | 49.04021 | 4.65029 | 37945 ft | 435 kts | 296° |
| 2026-05-04 19:14 | 49.07001 | 4.56891 | 37949 ft | 436 kts | 296° |
| 2026-05-04 19:15 | 49.09966 | 4.48770 | 37944 ft | 438 kts | 296° |
| 2026-05-04 19:15 | 49.12951 | 4.40569 | 37944 ft | 439 kts | 296° |
| 2026-05-04 19:16 | 49.15974 | 4.32237 | 37942 ft | 440 kts | 296° |
| 2026-05-04 19:16 | 49.18956 | 4.23991 | 37943 ft | 441 kts | 296° |
| 2026-05-04 19:17 | 49.21924 | 4.15758 | 37940 ft | 442 kts | 296° |
| 2026-05-04 19:17 | 49.24349 | 4.09011 | 37945 ft | 442 kts | 296° |
| 2026-05-04 19:18 | 49.27390 | 4.00527 | 37941 ft | 442 kts | 296° |
| 2026-05-04 19:18 | 49.30349 | 3.92244 | 37943 ft | 442 kts | 296° |
| 2026-05-04 19:19 | 49.33342 | 3.83840 | 37940 ft | 442 kts | 296° |
| 2026-05-04 19:19 | 49.36402 | 3.75216 | 37937 ft | 441 kts | 296° |
| 2026-05-04 19:20 | 49.39502 | 3.66453 | 37939 ft | 441 kts | 295° |
| 2026-05-04 19:20 | 49.42227 | 3.58723 | 37939 ft | 440 kts | 295° |
| 2026-05-04 19:21 | 49.45121 | 3.50490 | 37937 ft | 440 kts | 295° |
| 2026-05-04 19:21 | 49.48044 | 3.42146 | 37940 ft | 440 kts | 295° |
| 2026-05-04 19:22 | 49.50937 | 3.33863 | 37939 ft | 439 kts | 295° |
| 2026-05-04 19:22 | 49.53878 | 3.25413 | 37938 ft | 439 kts | 295° |
| 2026-05-04 19:23 | 49.56758 | 3.17111 | 37937 ft | 439 kts | 295° |
| 2026-05-04 19:23 | 49.59649 | 3.08752 | 37936 ft | 439 kts | 295° |
| 2026-05-04 19:24 | 49.62546 | 3.00346 | 37941 ft | 439 kts | 295° |
| 2026-05-04 19:24 | 49.65400 | 2.92040 | 37939 ft | 439 kts | 295° |
| 2026-05-04 19:25 | 49.67790 | 2.85061 | 37942 ft | 440 kts | 295° |
| 2026-05-04 19:25 | 49.70683 | 2.76590 | 37944 ft | 440 kts | 295° |
| 2026-05-04 19:26 | 49.73567 | 2.68115 | 37946 ft | 439 kts | 295° |
| 2026-05-04 19:26 | 49.74953 | 2.64038 | 37908 ft | 426 kts | 295° |
| 2026-05-04 19:26 | 49.76331 | 2.59980 | 37908 ft | 414 kts | 295° |
| 2026-05-04 19:26 | 49.77654 | 2.56074 | 37479 ft | 407 kts | 295° |
| 2026-05-04 19:27 | 49.78979 | 2.52152 | 36787 ft | 408 kts | 295° |
| 2026-05-04 19:27 | 49.80307 | 2.48206 | 35949 ft | 417 kts | 295° |
| 2026-05-04 19:27 | 49.81650 | 2.44212 | 35369 ft | 419 kts | 295° |
| 2026-05-04 19:27 | 49.82104 | 2.42860 | 35214 ft | 418 kts | 295° |
| 2026-05-04 19:28 | 49.86985 | 2.28320 | 33962 ft | 402 kts | 294° |
| 2026-05-04 19:28 | 49.88252 | 2.24539 | 33925 ft | 385 kts | 294° |
| 2026-05-04 19:29 | 49.89464 | 2.20917 | 33926 ft | 367 kts | 294° |
| 2026-05-04 19:29 | 49.91813 | 2.13853 | 33960 ft | 363 kts | 294° |
| 2026-05-04 19:30 | 49.94171 | 2.06728 | 33678 ft | 373 kts | 294° |
| 2026-05-04 19:30 | 49.95364 | 2.03120 | 33052 ft | 377 kts | 294° |
| 2026-05-04 19:30 | 49.96226 | 2.00512 | 32530 ft | 382 kts | 294° |
| 2026-05-04 19:30 | 49.97453 | 1.96798 | 31786 ft | 390 kts | 295° |
| 2026-05-04 19:31 | 49.98697 | 1.93029 | 31243 ft | 392 kts | 295° |
| 2026-05-04 19:31 | 49.99937 | 1.89272 | 30881 ft | 389 kts | 295° |
| 2026-05-04 19:31 | 50.01166 | 1.85539 | 30555 ft | 385 kts | 295° |
| 2026-05-04 19:31 | 50.02392 | 1.81804 | 30194 ft | 383 kts | 295° |
| 2026-05-04 19:32 | 50.03605 | 1.78109 | 29775 ft | 381 kts | 295° |
| 2026-05-04 19:32 | 50.04808 | 1.74437 | 29335 ft | 379 kts | 295° |
| 2026-05-04 19:32 | 50.06004 | 1.70793 | 28916 ft | 377 kts | 296° |
| 2026-05-04 19:32 | 50.07445 | 1.67315 | 28480 ft | 377 kts | 307° |
| 2026-05-04 19:33 | 50.09244 | 1.64317 | 28057 ft | 377 kts | 316° |
| 2026-05-04 19:33 | 50.11210 | 1.61625 | 27546 ft | 371 kts | 317° |
| 2026-05-04 19:33 | 50.13242 | 1.58928 | 26927 ft | 375 kts | 318° |
| 2026-05-04 19:33 | 50.15196 | 1.56343 | 26534 ft | 373 kts | 318° |
| 2026-05-04 19:34 | 50.17120 | 1.53781 | 26132 ft | 365 kts | 317° |
| 2026-05-04 19:34 | 50.19089 | 1.51137 | 25529 ft | 363 kts | 317° |
| 2026-05-04 19:34 | 50.21016 | 1.48531 | 25022 ft | 359 kts | 317° |
| 2026-05-04 19:34 | 50.22905 | 1.45965 | 24641 ft | 351 kts | 317° |
| 2026-05-04 19:35 | 50.24723 | 1.43488 | 24304 ft | 344 kts | 317° |
| 2026-05-04 19:35 | 50.26538 | 1.41009 | 23983 ft | 341 kts | 317° |
| 2026-05-04 19:35 | 50.28319 | 1.38571 | 23625 ft | 340 kts | 317° |
| 2026-05-04 19:35 | 50.30098 | 1.36134 | 23287 ft | 338 kts | 317° |
| 2026-05-04 19:36 | 50.31864 | 1.33711 | 22934 ft | 337 kts | 317° |
| 2026-05-04 19:36 | 50.33618 | 1.31303 | 22602 ft | 334 kts | 317° |
| 2026-05-04 19:36 | 50.35426 | 1.28818 | 22269 ft | 331 kts | 317° |
| 2026-05-04 19:36 | 50.37173 | 1.26416 | 21941 ft | 329 kts | 317° |
| 2026-05-04 19:37 | 50.38951 | 1.23968 | 21621 ft | 327 kts | 317° |
| 2026-05-04 19:37 | 50.40651 | 1.21625 | 21322 ft | 328 kts | 317° |
| 2026-05-04 19:37 | 50.42371 | 1.19250 | 21007 ft | 330 kts | 318° |
| 2026-05-04 19:37 | 50.44132 | 1.16816 | 20702 ft | 339 kts | 318° |
| 2026-05-04 19:38 | 50.45916 | 1.14349 | 20371 ft | 343 kts | 318° |
| 2026-05-04 19:38 | 50.47120 | 1.12683 | 20139 ft | 342 kts | 318° |
| 2026-05-04 19:38 | 50.48926 | 1.10182 | 19796 ft | 341 kts | 319° |
| 2026-05-04 19:38 | 50.50704 | 1.07722 | 19477 ft | 339 kts | 319° |
| 2026-05-04 19:39 | 50.52435 | 1.05228 | 19140 ft | 337 kts | 315° |
| 2026-05-04 19:39 | 50.54119 | 1.02442 | 18800 ft | 335 kts | 313° |
| 2026-05-04 19:39 | 50.55708 | 0.99690 | 18490 ft | 334 kts | 313° |
| 2026-05-04 19:39 | 50.57252 | 0.97012 | 18142 ft | 333 kts | 313° |
| 2026-05-04 19:40 | 50.58818 | 0.94316 | 17781 ft | 331 kts | 313° |
| 2026-05-04 19:40 | 50.60367 | 0.91666 | 17442 ft | 329 kts | 313° |
| 2026-05-04 19:40 | 50.61917 | 0.89027 | 17113 ft | 326 kts | 313° |
| 2026-05-04 19:40 | 50.63450 | 0.86423 | 16787 ft | 324 kts | 313° |
| 2026-05-04 19:41 | 50.64979 | 0.83825 | 16480 ft | 322 kts | 313° |
| 2026-05-04 19:41 | 50.66500 | 0.81243 | 16163 ft | 319 kts | 313° |
| 2026-05-04 19:41 | 50.67990 | 0.78657 | 15784 ft | 319 kts | 311° |
| 2026-05-04 19:41 | 50.69413 | 0.75940 | 15336 ft | 322 kts | 309° |
| 2026-05-04 19:42 | 50.70817 | 0.73162 | 14888 ft | 324 kts | 309° |
| 2026-05-04 19:42 | 50.72224 | 0.70366 | 14434 ft | 327 kts | 309° |
| 2026-05-04 19:42 | 50.73645 | 0.67548 | 13979 ft | 329 kts | 309° |
| 2026-05-04 19:42 | 50.75079 | 0.64715 | 13476 ft | 331 kts | 309° |
| 2026-05-04 19:43 | 50.76527 | 0.61861 | 12942 ft | 333 kts | 309° |
| 2026-05-04 19:43 | 50.77975 | 0.59007 | 12470 ft | 334 kts | 309° |
| 2026-05-04 19:43 | 50.79459 | 0.56086 | 11981 ft | 334 kts | 309° |
| 2026-05-04 19:43 | 50.80925 | 0.53199 | 11498 ft | 334 kts | 309° |
| 2026-05-04 19:44 | 50.82399 | 0.50292 | 11021 ft | 335 kts | 309° |
| 2026-05-04 19:44 | 50.83856 | 0.47419 | 10554 ft | 335 kts | 309° |
| 2026-05-04 19:44 | 50.85312 | 0.44546 | 10084 ft | 335 kts | 309° |
| 2026-05-04 19:44 | 50.86757 | 0.41688 | 9914 ft | 324 kts | 309° |
| 2026-05-04 19:45 | 50.88134 | 0.38958 | 9870 ft | 310 kts | 309° |
| 2026-05-04 19:45 | 50.89455 | 0.36334 | 9769 ft | 299 kts | 309° |
| 2026-05-04 19:45 | 50.90737 | 0.33788 | 9692 ft | 288 kts | 309° |
| 2026-05-04 19:45 | 50.91966 | 0.31345 | 9610 ft | 278 kts | 309° |
| 2026-05-04 19:46 | 50.93153 | 0.28986 | 9529 ft | 267 kts | 309° |
| 2026-05-04 19:46 | 50.94302 | 0.26702 | 9293 ft | 258 kts | 309° |
| 2026-05-04 19:46 | 50.95399 | 0.24496 | 8995 ft | 251 kts | 308° |
| 2026-05-04 19:46 | 50.96472 | 0.22325 | 8608 ft | 249 kts | 308° |
| 2026-05-04 19:47 | 50.97541 | 0.20160 | 8207 ft | 248 kts | 308° |
| 2026-05-04 19:47 | 50.98599 | 0.18018 | 7836 ft | 246 kts | 308° |
| 2026-05-04 19:47 | 50.99651 | 0.15886 | 7455 ft | 244 kts | 308° |
| 2026-05-04 19:47 | 51.00522 | 0.13558 | 7037 ft | 244 kts | 283° |
| 2026-05-04 19:48 | 51.00515 | 0.10928 | 6678 ft | 241 kts | 262° |
| 2026-05-04 19:48 | 51.00275 | 0.08303 | 6297 ft | 240 kts | 262° |
| 2026-05-04 19:48 | 51.00029 | 0.05682 | 5884 ft | 240 kts | 262° |
| 2026-05-04 19:48 | 50.99750 | 0.03043 | 5476 ft | 240 kts | 259° |
| 2026-05-04 19:49 | 50.99392 | 0.00452 | 5078 ft | 240 kts | 258° |
| 2026-05-04 19:49 | 50.99022 | -0.02087 | 4683 ft | 239 kts | 258° |
| 2026-05-04 19:49 | 50.98641 | -0.04681 | 4291 ft | 238 kts | 258° |
| 2026-05-04 19:49 | 50.98264 | -0.07237 | 3906 ft | 238 kts | 258° |
| 2026-05-04 19:50 | 50.97886 | -0.09809 | 3640 ft | 237 kts | 258° |
| 2026-05-04 19:50 | 50.97516 | -0.12335 | 3515 ft | 233 kts | 258° |
| 2026-05-04 19:50 | 50.97149 | -0.14839 | 3460 ft | 233 kts | 258° |
| 2026-05-04 19:50 | 50.96785 | -0.17324 | 3414 ft | 234 kts | 258° |
| 2026-05-04 19:51 | 50.96419 | -0.19840 | 3284 ft | 233 kts | 258° |
| 2026-05-04 19:51 | 50.96052 | -0.22354 | 3030 ft | 234 kts | 258° |
| 2026-05-04 19:51 | 50.95685 | -0.24864 | 2985 ft | 234 kts | 258° |
| 2026-05-04 19:51 | 50.95316 | -0.27382 | 2976 ft | 235 kts | 258° |
| 2026-05-04 19:52 | 50.94944 | -0.29922 | 2976 ft | 237 kts | 258° |
| 2026-05-04 19:52 | 50.94571 | -0.32467 | 2974 ft | 237 kts | 258° |
| 2026-05-04 19:52 | 50.94318 | -0.34196 | 2963 ft | 237 kts | 258° |
| 2026-05-04 19:52 | 50.93820 | -0.37592 | 2968 ft | 236 kts | 258° |
| 2026-05-04 19:53 | 50.93448 | -0.40142 | 2967 ft | 236 kts | 258° |
| 2026-05-04 19:53 | 50.93335 | -0.42735 | 2953 ft | 233 kts | 288° |
| 2026-05-04 19:53 | 50.93786 | -0.44243 | 2974 ft | 228 kts | 309° |
| 2026-05-04 19:53 | 50.95447 | -0.46160 | 2976 ft | 222 kts | 345° |
| 2026-05-04 19:54 | 50.96442 | -0.46566 | 2984 ft | 222 kts | 350° |
| 2026-05-04 19:54 | 50.97978 | -0.47039 | 2978 ft | 223 kts | 352° |
| 2026-05-04 19:54 | 50.99521 | -0.47500 | 2975 ft | 224 kts | 351° |
| 2026-05-04 19:54 | 51.01041 | -0.47968 | 2961 ft | 218 kts | 351° |
| 2026-05-04 19:55 | 51.02510 | -0.48430 | 2959 ft | 211 kts | 351° |
| 2026-05-04 19:55 | 51.03914 | -0.48875 | 2966 ft | 202 kts | 351° |
| 2026-05-04 19:55 | 51.05284 | -0.49310 | 2998 ft | 199 kts | 351° |
| 2026-05-04 19:55 | 51.06648 | -0.49743 | 3014 ft | 201 kts | 351° |
| 2026-05-04 19:56 | 51.08027 | -0.49896 | 2996 ft | 199 kts | 9° |
| 2026-05-04 19:56 | 51.09322 | -0.49232 | 3001 ft | 196 kts | 31° |
| 2026-05-04 19:56 | 51.10252 | -0.47715 | 2992 ft | 194 kts | 64° |
| 2026-05-04 19:56 | 51.10824 | -0.45692 | 3005 ft | 200 kts | 67° |
| 2026-05-04 19:57 | 51.11305 | -0.43618 | 3008 ft | 195 kts | 70° |
| 2026-05-04 19:57 | 51.11693 | -0.41663 | 2861 ft | 179 kts | 74° |
| 2026-05-04 19:57 | 51.11980 | -0.39771 | 2662 ft | 160 kts | 76° |
| 2026-05-04 19:57 | 51.12198 | -0.38193 | 2441 ft | 142 kts | 77° |
| 2026-05-04 19:58 | 51.12404 | -0.36673 | 2273 ft | 139 kts | 77° |
| 2026-05-04 19:58 | 51.12612 | -0.35147 | 2087 ft | 143 kts | 77° |
| 2026-05-04 19:58 | 51.12824 | -0.33583 | 1886 ft | 142 kts | 77° |
| 2026-05-04 19:58 | 51.13029 | -0.32075 | 1699 ft | 141 kts | 77° |
| 2026-05-04 19:59 | 51.13243 | -0.30508 | 1492 ft | 143 kts | 77° |
| 2026-05-04 19:59 | 51.13450 | -0.28985 | 1286 ft | 141 kts | 77° |
| 2026-05-04 19:59 | 51.13658 | -0.27462 | 1087 ft | 143 kts | 76° |
| 2026-05-04 19:59 | 51.13878 | -0.25847 | 892 ft | 143 kts | 77° |
| 2026-05-04 20:00 | 51.14062 | -0.24277 | 709 ft | 144 kts | 79° |
| 2026-05-04 20:00 | 51.14284 | -0.22711 | 499 ft | 147 kts | 74° |
| 2026-05-04 20:00 | 51.14517 | -0.21113 | 307 ft | 145 kts | 76° |
| 2026-05-04 20:00 | 51.14734 | -0.19598 | 211 ft | 130 kts | 76° |
| 2026-05-04 20:01 | 51.14900 | -0.18399 | 214 ft | 88 kts | 76° |
| 2026-05-04 20:01 | 51.14990 | -0.17731 | 210 ft | 49 kts | 78° |
| 2026-05-04 20:01 | 51.15042 | -0.17415 | 206 ft | 28 kts | 70° |
| 2026-05-04 20:01 | 51.15151 | -0.17213 | 208 ft | 15 kts | 351° |
| 2026-05-04 20:02 | 51.15204 | -0.17263 | 213 ft | 0 kts | 327° |
| 2026-05-04 20:02 | 51.15206 | -0.17265 | 212 ft | 2 kts | 328° |
| 2026-05-04 20:02 | 51.15209 | -0.17269 | 206 ft | 0 kts | 325° |
| 2026-05-04 20:05 | 51.15219 | -0.17280 | 215 ft | 5 kts | 325° |
| 2026-05-04 20:05 | 51.15237 | -0.17300 | 204 ft | 2 kts | 326° |
| 2026-05-04 20:06 | 51.15259 | -0.17322 | 206 ft | 6 kts | 328° |
| 2026-05-04 20:06 | 51.15290 | -0.17346 | 209 ft | 8 kts | 342° |
| 2026-05-04 20:06 | 51.15361 | -0.17373 | 211 ft | 12 kts | 349° |
| 2026-05-04 20:06 | 51.15450 | -0.17405 | 210 ft | 15 kts | 349° |
| 2026-05-04 20:07 | 51.15558 | -0.17442 | 206 ft | 17 kts | 347° |
| 2026-05-04 20:07 | 51.15679 | -0.17484 | 204 ft | 18 kts | 347° |
| 2026-05-04 20:07 | 51.15749 | -0.17619 | 208 ft | 18 kts | 256° |
| 2026-05-04 20:07 | 51.15718 | -0.17818 | 211 ft | 19 kts | 257° |
| 2026-05-04 20:08 | 51.15691 | -0.18032 | 204 ft | 18 kts | 260° |
| 2026-05-04 20:08 | 51.15746 | -0.18168 | 208 ft | 17 kts | 354° |
| 2026-05-04 20:08 | 51.15867 | -0.18219 | 204 ft | 17 kts | 346° |
| 2026-05-04 20:08 | 51.15981 | -0.18254 | 207 ft | 16 kts | 359° |
| 2026-05-04 20:09 | 51.16055 | -0.18163 | 210 ft | 11 kts | 55° |
| 2026-05-04 20:09 | 51.16059 | -0.18106 | 204 ft | 7 kts | 102° |
| 2026-05-04 20:09 | 51.16062 | -0.18033 | 206 ft | 0 kts | 78° |